Time;durP1;ratioP1;P1;durP2;ratioP2;P2;SDS_P1;SDS_P2;PMS_P1;PMS_P2;Temp;Humidity;BMP_temperature;BMP_pressure;BME280_temperature;BME280_humidity;BME280_pressure;Samples;Min_cycle;Max_cycle;Signal;HPM_P1;HPM_P2
2023/01/03 00:02:14;;;;;;;12.98;6.70;;;6.30;99.90;;;;;;4997898;28;20433;-89
2023/01/03 00:04:49;;;;;;;12.73;6.27;;;6.60;99.90;;;;;;4998888;28;20295;-92
2023/01/03 00:07:32;;;;;;;10.83;5.10;;;6.60;99.90;;;;;;4999315;28;20303;-88
2023/01/03 00:10:04;;;;;;;11.37;5.63;;;6.60;99.90;;;;;;4999322;28;20262;-94
2023/01/03 00:12:35;;;;;;;10.80;5.13;;;6.50;99.90;;;;;;4999902;28;20272;-88
2023/01/03 00:15:09;;;;;;;8.43;5.53;;;6.50;99.90;;;;;;5000693;28;20679;-91
2023/01/03 00:17:36;;;;;;;9.40;5.60;;;6.40;99.90;;;;;;5000486;28;20235;-92
2023/01/03 00:20:06;;;;;;;7.67;5.07;;;6.40;99.90;;;;;;5003059;28;20224;-92
2023/01/03 00:22:33;;;;;;;16.00;5.70;;;6.30;99.90;;;;;;5003908;28;20221;-93
2023/01/03 00:25:02;;;;;;;12.88;7.38;;;6.10;99.90;;;;;;5001863;28;20866;-91
2023/01/03 00:27:32;;;;;;;13.70;5.80;;;6.20;99.90;;;;;;5001947;28;20235;-95
2023/01/03 00:30:08;;;;;;;7.07;5.80;;;6.10;99.90;;;;;;4997446;28;20647;-93
2023/01/03 00:32:36;;;;;;;12.87;5.70;;;6.10;99.90;;;;;;4998370;28;20228;-91
2023/01/03 00:35:11;;;;;;;14.93;6.23;;;6.20;99.90;;;;;;5004990;28;20268;-93
2023/01/03 00:37:44;;;;;;;11.23;6.10;;;6.20;99.90;;;;;;5002160;28;20204;-92
2023/01/03 00:40:31;;;;;;;15.50;6.67;;;6.20;99.90;;;;;;4996893;28;20228;-90
2023/01/03 00:45:49;;;;;;;12.43;6.90;;;6.20;99.90;;;;;;4997084;28;20228;-90
2023/01/03 00:48:22;;;;;;;13.03;6.70;;;6.20;99.90;;;;;;4997408;28;20298;-86
2023/01/03 00:50:57;;;;;;;13.90;6.90;;;6.30;99.90;;;;;;4997815;28;20204;-90
2023/01/03 00:53:27;;;;;;;12.93;7.03;;;6.10;99.90;;;;;;4997423;28;20204;-91
2023/01/03 00:56:01;;;;;;;12.53;7.73;;;6.00;99.90;;;;;;4996886;28;20224;-93
2023/01/03 00:58:32;;;;;;;14.70;7.20;;;6.00;99.90;;;;;;4997100;28;20327;-94
2023/01/03 01:01:06;;;;;;;10.60;7.07;;;5.90;99.90;;;;;;4998116;28;20256;-92
2023/01/03 01:03:45;;;;;;;14.70;7.67;;;5.90;99.90;;;;;;4997784;28;20219;-93
2023/01/03 01:06:22;;;;;;;10.23;7.10;;;5.90;99.90;;;;;;4997780;28;20645;-92
2023/01/03 01:08:55;;;;;;;10.93;6.97;;;5.90;99.90;;;;;;4997432;28;20192;-90
2023/01/03 01:11:32;;;;;;;15.67;7.67;;;5.80;99.90;;;;;;4997068;28;20239;-89
2023/01/03 01:14:19;;;;;;;16.53;7.67;;;5.70;99.90;;;;;;4997273;28;20192;-92
2023/01/03 01:16:51;;;;;;;19.35;11.50;;;5.80;99.90;;;;;;4996046;28;20446;-94
2023/01/03 01:19:24;;;;;;;16.60;9.10;;;5.90;99.90;;;;;;4996303;28;20224;-96
2023/01/03 01:21:59;;;;;;;16.93;8.40;;;5.90;99.90;;;;;;4996658;28;20563;-92
2023/01/03 01:24:44;;;;;;;18.60;9.43;;;5.90;99.90;;;;;;4995807;28;20208;-91
2023/01/03 01:27:17;;;;;;;15.20;8.80;;;6.00;99.90;;;;;;4996945;28;20228;-93
2023/01/03 01:29:46;;;;;;;13.17;8.20;;;5.90;99.90;;;;;;4996934;28;20205;-91
2023/01/03 01:32:19;;;;;;;18.93;9.73;;;6.00;99.90;;;;;;4996590;28;20281;-95
2023/01/03 01:34:55;;;;;;;19.40;9.47;;;5.90;99.90;;;;;;4996376;28;20288;-91
2023/01/03 01:37:26;;;;;;;16.43;8.80;;;5.80;99.90;;;;;;4997937;28;20208;-93
2023/01/03 01:40:15;;;;;;;15.63;9.00;;;5.80;99.90;;;;;;4999818;28;20299;-92
2023/01/03 01:45:28;;;;;;;17.03;8.83;;;5.60;99.90;;;;;;4968910;28;20205;-90
2023/01/03 01:48:06;;;;;;;13.10;8.90;;;5.70;99.90;;;;;;5001311;28;20204;-92
2023/01/03 01:50:37;;;;;;;15.83;9.27;;;5.70;99.90;;;;;;5000605;28;20296;-93
2023/01/03 01:53:15;;;;;;;13.13;9.50;;;5.70;99.90;;;;;;4996574;28;20669;-85
2023/01/03 01:55:50;;;;;;;16.07;9.93;;;5.70;99.90;;;;;;4980229;28;20209;-92
2023/01/03 01:58:18;;;;;;;17.30;9.73;;;5.70;99.90;;;;;;4979262;28;20264;-93
2023/01/03 02:00:48;;;;;;;18.27;9.73;;;5.60;99.90;;;;;;4980876;28;20260;-91
2023/01/03 02:03:18;;;;;;;17.60;10.53;;;5.60;99.90;;;;;;4982574;28;20244;-91
2023/01/03 02:05:57;;;;;;;18.77;9.50;;;5.70;99.90;;;;;;4981064;28;20276;-91
2023/01/03 02:08:48;;;;;;;16.77;9.90;;;5.60;99.90;;;;;;4981460;28;20208;-91
2023/01/03 02:11:33;;;;;;;15.73;9.90;;;5.50;99.90;;;;;;4981044;28;20256;-93
2023/01/03 02:14:15;;;;;;;15.23;9.37;;;5.50;99.90;;;;;;4981637;28;20209;-90
2023/01/03 02:16:53;;;;;;;19.70;9.33;;;5.50;99.90;;;;;;4982218;28;20284;-94
2023/01/03 02:19:54;;;;;;;17.47;9.37;;;5.60;99.90;;;;;;4981176;28;20221;-90
2023/01/03 02:22:57;;;;;;;16.77;9.80;;;5.60;99.90;;;;;;4981313;28;20252;-93
2023/01/03 02:25:56;;;;;;;13.10;9.90;;;5.60;99.90;;;;;;4980819;28;20536;-92
2023/01/03 02:29:06;;;;;;;16.53;9.87;;;5.60;99.90;;;;;;4980714;28;20607;-93
2023/01/03 02:31:43;;;;;;;15.50;10.00;;;5.60;99.90;;;;;;4980966;28;20225;-92
2023/01/03 02:34:23;;;;;;;18.27;9.80;;;5.60;99.90;;;;;;4980303;28;20677;-93
2023/01/03 02:37:14;;;;;;;12.47;10.20;;;5.60;99.90;;;;;;4981462;28;20304;-91
2023/01/03 02:39:53;;;;;;;14.87;9.93;;;5.60;99.90;;;;;;4981128;28;20229;-94
2023/01/03 02:45:17;;;;;;;15.33;10.03;;;5.70;99.90;;;;;;4982777;28;20681;-91
2023/01/03 02:47:58;;;;;;;18.63;11.43;;;5.60;99.90;;;;;;4983915;28;20729;-87
2023/01/03 02:50:28;;;;;;;16.23;11.03;;;5.60;99.90;;;;;;4965382;28;20692;-91
2023/01/03 02:53:03;;;;;;;19.40;11.07;;;5.60;99.90;;;;;;4982639;28;20224;-92
2023/01/03 02:55:43;;;;;;;19.23;11.03;;;5.70;99.90;;;;;;4981835;28;20189;-92
2023/01/03 02:58:25;;;;;;;15.10;11.20;;;5.60;99.90;;;;;;4982652;28;20224;-91
2023/01/03 03:00:58;;;;;;;16.47;10.40;;;5.50;99.90;;;;;;4982594;28;20236;-92
2023/01/03 03:03:41;;;;;;;19.17;10.33;;;5.60;99.90;;;;;;4981658;28;20197;-88
2023/01/03 03:06:21;;;;;;;13.73;9.67;;;5.50;99.90;;;;;;4981462;28;20868;-92
2023/01/03 03:08:50;;;;;;;19.33;11.17;;;5.60;99.90;;;;;;4981903;28;20301;-84
2023/01/03 03:14:29;;;;;;;14.23;10.57;;;5.50;99.90;;;;;;4983726;28;20188;-91
2023/01/03 03:17:03;;;;;;;17.60;10.57;;;5.50;99.90;;;;;;4982700;28;20193;-90
2023/01/03 03:25:22;;;;;;;16.97;10.30;;;5.50;99.90;;;;;;4983025;28;20205;-91
2023/01/03 03:30:49;;;;;;;16.13;10.10;;;5.70;99.90;;;;;;4980465;28;20249;-91
2023/01/03 03:33:20;;;;;;;15.13;10.27;;;5.70;99.90;;;;;;4980740;28;20272;-91
2023/01/03 03:36:00;;;;;;;19.23;10.33;;;5.80;99.90;;;;;;4979463;28;20280;-92
2023/01/03 03:38:32;;;;;;;14.97;10.00;;;5.90;99.90;;;;;;4978595;28;20227;-90
2023/01/03 03:47:00;;;;;;;13.97;8.97;;;5.70;99.90;;;;;;4976795;28;20220;-91
2023/01/03 03:49:39;;;;;;;13.57;9.30;;;5.80;99.90;;;;;;4978517;28;20311;-91
2023/01/03 03:52:13;;;;;;;10.73;8.70;;;5.90;99.90;;;;;;4977976;28;20295;-92
2023/01/03 03:54:50;;;;;;;14.27;9.90;;;5.90;99.90;;;;;;4977967;28;20240;-92
2023/01/03 03:57:26;;;;;;;11.87;8.83;;;6.10;99.90;;;;;;4977374;28;20646;-96
2023/01/03 04:00:05;;;;;;;13.27;9.30;;;6.00;99.90;;;;;;4977013;28;20323;-95
2023/01/03 04:02:33;;;;;;;11.47;8.37;;;5.90;99.90;;;;;;4978089;28;20196;-92
2023/01/03 04:05:06;;;;;;;13.83;8.03;;;5.80;99.90;;;;;;4977751;28;20200;-91
2023/01/03 04:07:40;;;;;;;12.77;8.30;;;5.90;99.90;;;;;;4975783;28;20240;-91
2023/01/03 04:10:09;;;;;;;11.27;8.13;;;6.00;99.90;;;;;;4976382;28;20257;-91
2023/01/03 04:12:42;;;;;;;12.90;8.40;;;5.90;99.90;;;;;;4976524;28;20244;-89
2023/01/03 04:15:11;;;;;;;11.17;8.23;;;5.90;99.90;;;;;;4975995;28;20297;-90
2023/01/03 04:17:38;;;;;;;12.57;8.33;;;5.90;99.90;;;;;;4976540;28;20205;-87
2023/01/03 04:20:06;;;;;;;12.40;8.57;;;6.00;99.90;;;;;;4976535;28;20241;-91
2023/01/03 04:22:33;;;;;;;11.53;8.37;;;6.00;99.90;;;;;;4976299;28;20213;-88
2023/01/03 04:25:05;;;;;;;9.57;7.70;;;6.10;99.90;;;;;;4976147;28;20232;-90
2023/01/03 04:27:35;;;;;;;14.63;11.05;;;6.00;99.90;;;;;;4974906;28;20493;-91
2023/01/03 04:30:10;;;;;;;14.93;8.57;;;6.10;99.90;;;;;;4977777;28;20353;-86
2023/01/03 04:32:38;;;;;;;12.43;7.90;;;6.00;99.90;;;;;;4976707;28;20712;-90
2023/01/03 04:35:09;;;;;;;10.57;9.00;;;5.90;99.90;;;;;;4981733;28;20259;-90
2023/01/03 04:37:36;;;;;;;10.30;7.57;;;6.10;99.90;;;;;;4981249;28;20212;-87
2023/01/03 04:40:11;;;;;;;11.23;7.40;;;6.20;99.90;;;;;;4976928;28;20392;-93
2023/01/03 04:45:43;;;;;;;12.37;7.63;;;6.10;99.90;;;;;;4978823;28;20189;-90
2023/01/03 04:51:33;;;;;;;10.13;7.60;;;6.30;99.90;;;;;;4990986;28;20211;-83
2023/01/03 04:54:03;;;;;;;14.40;9.38;;;6.10;99.90;;;;;;4990433;28;20471;-92
2023/01/03 04:56:38;;;;;;;10.97;8.30;;;6.20;99.90;;;;;;4988958;28;20205;-86
2023/01/03 04:59:06;;;;;;;10.23;7.47;;;6.30;99.90;;;;;;4992989;28;20249;-87
2023/01/03 05:01:39;;;;;;;13.97;7.97;;;6.30;99.90;;;;;;4998313;28;20213;-83
2023/01/03 05:04:12;;;;;;;15.20;7.50;;;6.30;99.90;;;;;;4998561;28;20193;-82
2023/01/03 05:06:46;;;;;;;10.87;8.27;;;6.30;99.90;;;;;;4998104;28;20220;-90
2023/01/03 05:09:16;;;;;;;14.80;8.23;;;6.30;99.90;;;;;;4998752;28;20192;-88
2023/01/03 05:11:48;;;;;;;17.27;9.47;;;6.30;99.90;;;;;;4998724;28;20225;-88
2023/01/03 05:14:17;;;;;;;16.30;9.90;;;6.30;99.90;;;;;;5001631;28;20181;-89
2023/01/03 05:16:45;;;;;;;15.03;9.60;;;6.40;99.90;;;;;;5006031;28;20192;-89
2023/01/03 05:19:15;;;;;;;14.23;10.27;;;6.40;99.90;;;;;;5020489;28;20204;-88
2023/01/03 05:27:18;;;;;;;19.50;12.50;;;6.60;99.90;;;;;;5006260;28;20201;-91
2023/01/03 05:29:53;;;;;;;17.03;10.93;;;6.60;99.90;;;;;;4992522;28;20204;-94
2023/01/03 05:32:22;;;;;;;16.17;11.23;;;6.60;99.90;;;;;;5005409;28;20204;-91
2023/01/03 05:34:49;;;;;;;18.63;11.37;;;6.60;99.90;;;;;;4989260;28;20238;-91
2023/01/03 05:37:17;;;;;;;17.03;11.93;;;6.50;99.90;;;;;;5001492;28;20276;-91
2023/01/03 05:39:47;;;;;;;22.27;12.63;;;6.50;99.90;;;;;;4999997;28;20252;-94
2023/01/03 05:42:17;;;;;;;20.70;12.97;;;6.40;99.90;;;;;;5001754;28;20212;-94
2023/01/03 05:44:44;;;;;;;18.90;13.00;;;6.40;99.90;;;;;;4997570;28;20255;-93
2023/01/03 05:47:11;;;;;;;22.27;12.27;;;6.40;99.90;;;;;;4999936;28;20712;-96
2023/01/03 05:49:38;;;;;;;19.40;13.20;;;6.50;99.90;;;;;;5000397;28;20639;-94
2023/01/03 05:52:06;;;;;;;22.37;14.07;;;6.40;99.90;;;;;;4999626;28;20275;-93
2023/01/03 05:54:34;;;;;;;26.10;16.03;;;6.40;99.90;;;;;;5000620;28;20205;-92
2023/01/03 05:57:03;;;;;;;21.63;14.20;;;6.50;99.90;;;;;;5000854;28;20235;-92
2023/01/03 05:59:32;;;;;;;25.23;15.20;;;6.50;99.90;;;;;;5002780;28;20261;-92
2023/01/03 06:02:00;;;;;;;22.97;14.90;;;6.50;99.90;;;;;;5001415;28;20205;-95
2023/01/03 06:04:27;;;;;;;23.93;15.10;;;6.60;99.90;;;;;;5002247;28;20288;-92
2023/01/03 06:06:54;;;;;;;28.40;16.03;;;6.60;99.90;;;;;;5001202;28;20696;-95
2023/01/03 06:09:22;;;;;;;21.00;15.10;;;6.60;99.90;;;;;;4999396;28;20247;-93
2023/01/03 06:11:49;;;;;;;30.03;15.33;;;6.60;99.90;;;;;;4998583;28;20312;-93
2023/01/03 06:14:18;;;;;;;23.23;14.87;;;6.70;99.90;;;;;;4998012;28;20204;-93
2023/01/03 06:19:32;;;;;;;26.77;16.10;;;6.60;99.90;;;;;;4998180;28;20286;-93
2023/01/03 06:22:00;;;;;;;25.33;16.30;;;6.70;99.90;;;;;;4999874;28;20212;-95
2023/01/03 06:24:27;;;;;;;27.10;16.13;;;6.70;99.90;;;;;;5000251;28;20239;-93
2023/01/03 06:26:54;;;;;;;26.13;16.40;;;6.70;99.90;;;;;;4998910;28;20205;-94
2023/01/03 06:29:21;;;;;;;27.73;16.30;;;6.70;99.90;;;;;;4999996;28;20708;-93
2023/01/03 06:31:50;;;;;;;26.10;16.07;;;6.80;99.90;;;;;;4999919;28;20675;-93
2023/01/03 06:34:19;;;;;;;20.77;15.17;;;6.80;99.90;;;;;;4999118;28;20208;-93
2023/01/03 06:36:46;;;;;;;26.50;16.40;;;6.90;99.90;;;;;;4998171;28;20205;-93
2023/01/03 06:39:13;;;;;;;23.97;15.67;;;6.80;99.90;;;;;;4998320;28;20223;-94
2023/01/03 06:41:40;;;;;;;23.63;15.20;;;6.80;99.90;;;;;;4998703;28;20615;-94
2023/01/03 06:44:07;;;;;;;24.77;15.63;;;6.80;99.90;;;;;;4998664;28;20228;-92
2023/01/03 06:55:00;;;;;;;24.63;15.50;;;6.90;99.90;;;;;;4997675;28;20243;-94
2023/01/03 06:57:27;;;;;;;24.90;14.80;;;6.80;99.90;;;;;;4998104;28;20228;-93
2023/01/03 06:59:56;;;;;;;21.00;14.67;;;6.90;99.90;;;;;;4998196;28;20258;-95
2023/01/03 07:02:23;;;;;;;25.50;14.50;;;6.90;99.90;;;;;;5002147;28;20714;-92
2023/01/03 07:04:52;;;;;;;22.87;14.47;;;6.90;99.90;;;;;;5002584;28;20221;-95
2023/01/03 07:07:20;;;;;;;23.63;15.57;;;7.00;99.90;;;;;;5001797;28;20236;-94
2023/01/03 07:09:47;;;;;;;23.83;14.93;;;7.00;99.90;;;;;;5001857;28;20228;-94
2023/01/03 07:14:54;;;;;;;20.40;14.10;;;7.20;99.90;;;;;;4980495;28;20200;-91
2023/01/03 07:17:21;;;;;;;22.23;15.88;;;7.10;99.90;;;;;;5002097;28;20485;-93
2023/01/03 07:19:49;;;;;;;20.40;14.40;;;7.20;99.90;;;;;;4998548;28;20671;-92
2023/01/03 07:22:18;;;;;;;22.90;14.63;;;7.20;99.90;;;;;;4999326;28;20276;-95
2023/01/03 07:24:45;;;;;;;24.73;13.70;;;7.30;99.90;;;;;;4997281;28;20208;-93
2023/01/03 07:27:13;;;;;;;28.47;14.03;;;7.30;99.90;;;;;;4996956;28;20304;-94
2023/01/03 07:29:42;;;;;;;26.70;13.90;;;7.40;99.90;;;;;;4998587;28;20663;-93
2023/01/03 07:32:09;;;;;;;20.60;13.33;;;7.40;99.90;;;;;;5000086;28;20236;-92
2023/01/03 07:34:36;;;;;;;23.97;13.20;;;7.50;99.90;;;;;;4998723;28;20648;-94
2023/01/03 07:37:03;;;;;;;21.50;12.37;;;7.50;99.90;;;;;;4998485;28;20691;-93
2023/01/03 07:39:33;;;;;;;21.27;12.83;;;7.40;99.90;;;;;;5000107;28;20311;-95
2023/01/03 07:44:45;;;;;;;19.03;12.60;;;7.40;99.90;;;;;;5003139;28;20288;-96
2023/01/03 07:47:12;;;;;;;26.47;13.57;;;7.60;99.90;;;;;;4999268;28;20204;-93
2023/01/03 07:49:39;;;;;;;21.10;14.33;;;7.50;99.90;;;;;;5001129;28;20649;-93
2023/01/03 07:52:06;;;;;;;20.77;13.33;;;7.60;99.90;;;;;;5002423;28;20546;-95
2023/01/03 07:54:40;;;;;;;19.13;12.73;;;7.60;99.90;;;;;;5001279;28;20291;-96
2023/01/03 07:57:08;;;;;;;19.07;12.90;;;7.60;99.90;;;;;;5001937;28;20215;-96
2023/01/03 07:59:35;;;;;;;19.17;13.17;;;7.70;99.90;;;;;;5000683;28;20215;-91
2023/01/03 08:02:02;;;;;;;26.47;13.97;;;7.70;99.90;;;;;;5000859;28;20239;-91
2023/01/03 08:04:30;;;;;;;24.80;12.90;;;7.70;99.90;;;;;;4999859;28;20268;-91
2023/01/03 08:06:58;;;;;;;22.90;13.30;;;7.70;99.90;;;;;;4998938;28;20236;-94
2023/01/03 08:14:56;;;;;;;28.53;14.40;;;7.70;99.90;;;;;;4999501;28;20208;-94
2023/01/03 08:17:23;;;;;;;27.13;18.95;;;7.80;99.90;;;;;;5001049;28;20794;-93
2023/01/03 08:19:50;;;;;;;28.17;16.47;;;7.90;99.90;;;;;;5001724;28;20232;-95
2023/01/03 08:22:17;;;;;;;24.60;14.97;;;7.80;99.90;;;;;;5000796;28;20291;-92
2023/01/03 08:24:44;;;;;;;23.67;14.70;;;7.90;99.90;;;;;;5000080;28;20210;-93
2023/01/03 08:27:14;;;;;;;21.03;15.47;;;7.90;99.90;;;;;;5001785;28;20209;-92
2023/01/03 08:29:41;;;;;;;22.60;15.10;;;7.80;99.90;;;;;;5000974;28;20217;-90
2023/01/03 08:37:31;;;;;;;24.93;14.70;;;7.80;99.90;;;;;;5004545;28;20196;-92
2023/01/03 08:43:02;;;;;;;22.57;14.07;;;7.80;99.90;;;;;;5005166;28;20216;-94
2023/01/03 08:45:41;;;;;;;21.03;13.83;;;8.00;99.90;;;;;;5002826;28;20213;-91
2023/01/03 08:48:11;;;;;;;24.13;16.00;;;8.00;99.90;;;;;;4999298;28;21002;-95
2023/01/03 08:50:42;;;;;;;22.00;13.47;;;8.00;99.90;;;;;;4994476;28;20247;-93
2023/01/03 08:53:14;;;;;;;17.57;11.27;;;8.00;99.90;;;;;;4997484;28;20223;-92
2023/01/03 08:55:43;;;;;;;16.20;10.93;;;8.00;99.90;;;;;;4998876;28;20203;-93
2023/01/03 08:58:17;;;;;;;14.37;11.07;;;8.00;99.90;;;;;;4997773;28;20192;-91
2023/01/03 09:00:44;;;;;;;14.30;11.07;;;8.10;99.90;;;;;;4996815;28;20319;-95
2023/01/03 09:03:19;;;;;;;16.37;10.80;;;8.10;99.90;;;;;;4996693;28;20571;-93
2023/01/03 09:05:47;;;;;;;13.90;10.40;;;8.20;99.90;;;;;;4997023;28;20207;-89
2023/01/03 09:08:20;;;;;;;14.00;9.87;;;8.10;99.90;;;;;;4996969;28;20227;-89
2023/01/03 09:10:49;;;;;;;17.67;11.50;;;8.10;99.90;;;;;;4996125;28;20315;-92
2023/01/03 09:13:22;;;;;;;12.60;10.00;;;8.30;99.90;;;;;;4996252;28;20644;-90
2023/01/03 09:15:50;;;;;;;19.00;9.57;;;8.30;99.90;;;;;;4995283;28;20196;-89
2023/01/03 09:18:23;;;;;;;17.55;13.05;;;8.20;99.90;;;;;;4987188;28;20440;-91
2023/01/03 09:20:53;;;;;;;16.80;10.80;;;8.20;99.90;;;;;;4977721;28;20337;-92
2023/01/03 09:23:26;;;;;;;15.07;9.83;;;8.30;99.90;;;;;;4998704;28;20606;-93
2023/01/03 09:25:54;;;;;;;16.67;8.40;;;8.30;99.90;;;;;;5003700;28;20231;-92
2023/01/03 09:28:29;;;;;;;15.27;7.83;;;8.30;99.90;;;;;;5000088;28;20716;-92
2023/01/03 09:31:10;;;;;;;9.90;7.97;;;8.20;99.90;;;;;;5000331;28;20236;-90
2023/01/03 09:33:42;;;;;;;11.50;7.57;;;8.30;99.90;;;;;;4989592;28;20243;-93
2023/01/03 09:36:13;;;;;;;11.70;7.13;;;8.30;99.90;;;;;;5002629;28;20608;-96
2023/01/03 09:38:44;;;;;;;8.60;6.33;;;8.40;99.90;;;;;;4998676;28;20207;-92
2023/01/03 09:41:18;;;;;;;13.47;6.83;;;8.50;99.90;;;;;;4996831;28;20229;-92
2023/01/03 09:43:55;;;;;;;13.67;6.67;;;8.50;99.90;;;;;;4998691;28;20206;-93
2023/01/03 09:46:24;;;;;;;10.90;5.73;;;8.40;99.90;;;;;;4999218;28;20331;-94
2023/01/03 09:48:57;;;;;;;10.93;5.27;;;8.50;99.90;;;;;;5000761;28;20208;-93
2023/01/03 10:06:15;;;;;;;9.40;4.93;;;8.70;99.90;;;;;;5001381;28;20224;-92
2023/01/03 10:09:03;;;;;;;9.13;5.20;;;8.80;99.90;;;;;;4998428;28;20231;-93
2023/01/03 10:11:39;;;;;;;12.80;5.30;;;8.70;99.90;;;;;;5009162;28;20220;-94
2023/01/03 10:14:20;;;;;;;9.03;5.03;;;8.70;99.90;;;;;;5006483;28;20263;-93
2023/01/03 10:17:02;;;;;;;12.13;5.87;;;8.80;99.90;;;;;;5010517;28;20235;-93
2023/01/03 10:20:11;;;;;;;9.63;5.27;;;8.90;99.90;;;;;;5010601;28;20200;-93
2023/01/03 10:22:40;;;;;;;8.57;4.90;;;8.90;99.90;;;;;;5002124;28;20252;-92
2023/01/03 10:25:16;;;;;;;7.43;4.90;;;8.90;99.90;;;;;;5005088;28;20212;-93
2023/01/03 10:27:46;;;;;;;7.10;4.60;;;8.90;99.90;;;;;;5005390;28;20211;-92
2023/01/03 10:30:27;;;;;;;6.60;4.50;;;8.90;99.90;;;;;;5003037;28;20355;-93
2023/01/03 10:33:26;;;;;;;8.33;4.80;;;9.00;99.90;;;;;;5001930;28;20244;-92
2023/01/03 10:35:59;;;;;;;9.37;4.50;;;9.00;99.90;;;;;;5002287;28;20208;-91
2023/01/03 10:38:28;;;;;;;6.70;4.43;;;9.00;99.90;;;;;;5000243;28;20235;-94
2023/01/03 10:40:59;;;;;;;7.97;4.40;;;9.10;99.90;;;;;;4999728;28;20236;-93
2023/01/03 10:43:33;;;;;;;6.87;4.00;;;9.10;99.90;;;;;;5002005;28;20207;-93
2023/01/03 10:46:04;;;;;;;6.80;3.70;;;9.20;99.90;;;;;;4999580;28;20747;-93
2023/01/03 10:48:40;;;;;;;5.73;4.07;;;9.20;99.90;;;;;;4998817;28;20647;-93
2023/01/03 10:51:24;;;;;;;9.07;4.10;;;9.20;99.90;;;;;;5001903;28;20318;-92
2023/01/03 10:53:59;;;;;;;6.30;3.77;;;9.30;99.90;;;;;;5005832;28;20209;-93
2023/01/03 10:56:35;;;;;;;8.67;3.80;;;9.30;99.90;;;;;;5005766;28;20626;-96
2023/01/03 10:59:21;;;;;;;5.40;3.30;;;9.40;99.90;;;;;;5005308;28;20275;-92
2023/01/03 11:02:15;;;;;;;9.23;4.40;;;9.20;99.90;;;;;;4998453;28;20232;-93
2023/01/03 11:05:11;;;;;;;9.70;4.03;;;9.30;99.90;;;;;;4999925;28;20315;-93
2023/01/03 11:07:43;;;;;;;6.90;3.40;;;9.30;99.90;;;;;;4998281;28;20210;-92
2023/01/03 11:10:16;;;;;;;7.83;3.47;;;9.40;99.90;;;;;;4998143;28;20232;-92
2023/01/03 11:12:46;;;;;;;4.73;3.23;;;9.40;99.90;;;;;;4997817;28;20236;-91
2023/01/03 11:15:24;;;;;;;6.07;2.93;;;9.50;99.90;;;;;;4998122;28;20235;-93
2023/01/03 11:17:57;;;;;;;4.70;3.23;;;9.30;99.90;;;;;;4998665;28;20374;-90
2023/01/03 11:20:39;;;;;;;12.87;3.57;;;9.30;99.90;;;;;;4997959;28;20315;-93
2023/01/03 11:23:15;;;;;;;6.20;3.53;;;9.20;99.90;;;;;;4997996;28;20232;-93
2023/01/03 11:25:56;;;;;;;11.33;4.07;;;9.20;99.90;;;;;;4997946;28;20295;-93
2023/01/03 11:29:03;;;;;;;8.13;3.80;;;9.20;99.90;;;;;;4998157;28;20204;-93
2023/01/03 11:31:46;;;;;;;8.23;3.50;;;9.20;99.90;;;;;;4996123;28;20235;-94
2023/01/03 11:34:30;;;;;;;6.17;2.90;;;9.20;99.90;;;;;;4997245;28;20262;-94
2023/01/03 11:37:26;;;;;;;4.97;3.40;;;9.10;99.90;;;;;;4997490;28;20232;-94
2023/01/03 11:40:12;;;;;;;4.70;2.67;;;9.20;99.90;;;;;;4998783;28;20221;-92
2023/01/03 11:43:02;;;;;;;7.70;3.17;;;9.20;99.90;;;;;;4999839;28;20327;-93
2023/01/03 11:45:57;;;;;;;7.07;3.40;;;9.20;99.90;;;;;;4998180;28;20629;-91
2023/01/03 11:48:55;;;;;;;7.23;2.97;;;9.10;99.90;;;;;;4997285;28;20204;-94
2023/01/03 11:51:30;;;;;;;13.97;3.93;;;9.00;99.90;;;;;;4998644;28;20704;-92
2023/01/03 11:54:09;;;;;;;10.97;3.50;;;9.10;99.90;;;;;;4998224;28;20575;-92
2023/01/03 11:56:40;;;;;;;5.50;3.23;;;9.10;99.90;;;;;;4997620;28;20224;-91
2023/01/03 11:59:19;;;;;;;5.63;3.13;;;9.10;99.90;;;;;;4991164;28;20213;-95
2023/01/03 12:02:27;;;;;;;9.80;3.50;;;9.00;99.90;;;;;;4984513;28;20270;-93
2023/01/03 12:05:04;;;;;;;10.23;3.17;;;9.20;99.90;;;;;;4996878;28;20212;-94
2023/01/03 12:07:47;;;;;;;7.17;3.23;;;9.30;99.90;;;;;;4995133;28;20216;-92
2023/01/03 12:10:36;;;;;;;6.30;3.07;;;9.30;99.90;;;;;;4987602;28;20319;-93
2023/01/03 12:13:20;;;;;;;12.27;3.50;;;9.30;99.90;;;;;;4983772;28;20225;-92
2023/01/03 12:16:09;;;;;;;8.47;3.30;;;9.30;99.90;;;;;;4995856;28;20323;-94
2023/01/03 12:18:44;;;;;;;8.33;3.40;;;9.40;99.90;;;;;;4985944;28;20295;-90
2023/01/03 12:21:15;;;;;;;8.70;3.40;;;9.50;99.90;;;;;;4995570;28;20247;-94
2023/01/03 12:23:48;;;;;;;11.53;3.33;;;9.60;99.90;;;;;;4984403;28;20217;-89
2023/01/03 12:26:17;;;;;;;7.13;2.97;;;9.60;99.90;;;;;;4994989;28;20209;-93
2023/01/03 12:28:52;;;;;;;9.70;3.43;;;9.50;99.90;;;;;;4995815;28;20208;-93
2023/01/03 12:31:30;;;;;;;8.97;3.03;;;9.40;99.90;;;;;;4976697;28;20600;-92
2023/01/03 12:34:08;;;;;;;9.13;3.10;;;9.50;99.90;;;;;;4974761;28;20196;-91
2023/01/03 12:37:00;;;;;;;8.67;3.27;;;9.50;99.90;;;;;;4994337;28;20232;-91
2023/01/03 12:39:53;;;;;;;5.47;2.60;;;9.50;99.90;;;;;;4987517;28;20240;-93
2023/01/03 12:42:36;;;;;;;11.70;3.43;;;9.40;99.90;;;;;;4987158;28;20224;-94
2023/01/03 12:45:27;;;;;;;13.37;3.37;;;9.50;99.90;;;;;;4986522;28;20221;-92
2023/01/03 12:48:00;;;;;;;8.77;3.43;;;9.60;99.90;;;;;;4984410;28;20264;-94
2023/01/03 12:50:40;;;;;;;10.83;2.87;;;9.60;99.90;;;;;;4991550;28;20225;-91
2023/01/03 12:53:20;;;;;;;7.17;2.90;;;9.70;99.90;;;;;;4997213;28;20246;-91
2023/01/03 12:56:05;;;;;;;9.73;3.67;;;9.70;99.90;;;;;;4977678;28;20291;-92
2023/01/03 12:58:48;;;;;;;7.40;2.80;;;9.80;99.90;;;;;;4977902;28;20216;-93
2023/01/03 13:01:29;;;;;;;9.43;2.87;;;9.80;99.90;;;;;;4976221;28;20229;-93
2023/01/03 13:04:00;;;;;;;5.87;2.90;;;9.90;99.90;;;;;;4976928;28;20215;-94
2023/01/03 13:06:31;;;;;;;7.87;2.83;;;9.80;99.90;;;;;;4976867;28;20296;-93
2023/01/03 13:09:03;;;;;;;10.00;2.90;;;9.80;99.90;;;;;;4976347;28;20205;-95
2023/01/03 13:11:53;;;;;;;9.97;2.80;;;9.80;99.90;;;;;;4976482;28;20371;-94
2023/01/03 13:14:56;;;;;;;7.03;3.00;;;9.80;99.90;;;;;;4977937;28;20244;-91
2023/01/03 13:17:30;;;;;;;7.70;2.67;;;9.90;99.90;;;;;;4976025;28;20212;-94
2023/01/03 13:20:27;;;;;;;9.53;3.07;;;10.00;99.90;;;;;;4975591;28;20229;-93
2023/01/03 13:23:29;;;;;;;9.57;2.90;;;9.90;99.90;;;;;;4967985;28;20243;-94
2023/01/03 13:29:57;;;;;;;10.90;2.73;;;10.10;99.90;;;;;;5007146;28;20176;-92
2023/01/03 13:32:28;;;;;;;6.10;2.23;;;9.90;99.90;;;;;;5016838;28;20212;-93
2023/01/03 13:35:23;;;;;;;9.23;2.73;;;9.90;99.90;;;;;;5021908;28;20200;-93
2023/01/03 13:41:29;;;;;;;11.87;2.67;;;9.90;99.90;;;;;;5021894;28;20235;-90
2023/01/03 13:44:08;;;;;;;9.10;2.90;;;9.90;99.90;;;;;;5021419;28;20200;-92
2023/01/03 13:46:42;;;;;;;8.43;3.13;;;9.80;99.90;;;;;;5021177;28;20189;-93
2023/01/03 13:49:18;;;;;;;8.07;2.53;;;9.70;99.90;;;;;;5021481;28;20197;-92
2023/01/03 13:51:48;;;;;;;7.33;2.70;;;9.70;99.90;;;;;;5020194;28;20235;-94
2023/01/03 13:54:54;;;;;;;15.13;3.00;;;9.70;99.90;;;;;;5019291;28;20220;-91
2023/01/03 13:57:53;;;;;;;5.90;2.43;;;9.80;99.90;;;;;;5008967;28;20223;-90
2023/01/03 14:00:22;;;;;;;8.97;3.37;;;9.70;99.90;;;;;;5003292;28;20235;-92
2023/01/03 14:03:38;;;;;;;9.33;3.00;;;9.70;99.90;;;;;;4999040;28;20259;-93
2023/01/03 14:06:44;;;;;;;9.03;2.80;;;9.70;99.90;;;;;;4999086;28;20291;-91
2023/01/03 14:09:54;;;;;;;6.30;3.03;;;9.70;99.90;;;;;;4993073;28;20201;-90
2023/01/03 14:12:47;;;;;;;6.40;2.57;;;9.70;99.90;;;;;;4998406;28;20291;-90
2023/01/03 14:15:19;;;;;;;9.77;3.40;;;9.60;99.90;;;;;;4997168;28;20917;-93
2023/01/03 14:17:51;;;;;;;8.13;3.20;;;9.70;99.90;;;;;;4997618;28;20201;-91
2023/01/03 14:20:23;;;;;;;7.33;2.60;;;9.60;99.90;;;;;;4997331;28;20298;-90
2023/01/03 14:23:02;;;;;;;7.57;3.23;;;9.60;99.90;;;;;;4997402;28;20629;-92
2023/01/03 14:25:36;;;;;;;7.90;3.10;;;9.70;99.90;;;;;;4997132;28;20204;-92
2023/01/03 14:28:17;;;;;;;11.37;3.93;;;9.60;99.90;;;;;;4997506;28;20715;-94
2023/01/03 14:31:05;;;;;;;7.07;3.30;;;9.70;99.90;;;;;;4997474;28;20224;-91
2023/01/03 14:33:38;;;;;;;10.50;4.03;;;9.70;99.90;;;;;;4996883;28;20659;-89
2023/01/03 14:36:07;;;;;;;6.40;2.80;;;9.60;99.90;;;;;;4997157;28;20228;-93
2023/01/03 14:38:37;;;;;;;8.07;3.20;;;9.70;99.90;;;;;;4996821;28;20302;-96
2023/01/03 14:41:05;;;;;;;9.93;3.83;;;9.70;99.90;;;;;;4995573;28;20224;-89
2023/01/03 14:43:34;;;;;;;13.38;4.30;;;9.60;99.90;;;;;;4994972;28;20529;-92
2023/01/03 14:46:05;;;;;;;10.37;3.77;;;9.80;99.90;;;;;;4995990;28;20220;-93
2023/01/03 14:48:32;;;;;;;11.17;3.83;;;9.70;99.90;;;;;;4996973;28;20206;-90
2023/01/03 14:51:01;;;;;;;7.40;3.80;;;9.70;99.90;;;;;;4996892;28;20591;-90
2023/01/03 14:53:28;;;;;;;7.57;3.60;;;9.70;99.90;;;;;;4996900;28;20648;-92
2023/01/03 14:55:59;;;;;;;11.67;3.97;;;9.70;99.90;;;;;;4996732;28;20228;-91
2023/01/03 14:58:32;;;;;;;8.67;3.63;;;9.70;99.90;;;;;;4996773;28;20299;-92